sensor_id;sensor_type;location;lat;lon;timestamp;P1;durP1;ratioP1;P2;durP2;ratioP2
8476;SDS011;4275;42.854;23.222;2022-07-01T00:01:38;20.17;;;18.88;;
8476;SDS011;4275;42.854;23.222;2022-07-01T00:04:05;19.92;;;18.63;;
8476;SDS011;4275;42.854;23.222;2022-07-01T00:06:32;19.85;;;18.55;;
8476;SDS011;4275;42.854;23.222;2022-07-01T00:08:59;19.85;;;18.55;;
8476;SDS011;4275;42.854;23.222;2022-07-01T00:11:27;19.90;;;18.60;;
8476;SDS011;4275;42.854;23.222;2022-07-01T00:13:53;20.00;;;18.70;;
8476;SDS011;4275;42.854;23.222;2022-07-01T00:16:20;19.85;;;18.55;;
8476;SDS011;4275;42.854;23.222;2022-07-01T00:18:49;19.75;;;18.45;;
8476;SDS011;4275;42.854;23.222;2022-07-01T00:21:16;19.50;;;18.25;;
8476;SDS011;4275;42.854;23.222;2022-07-01T00:23:43;18.85;;;17.65;;
8476;SDS011;4275;42.854;23.222;2022-07-01T00:26:10;18.70;;;17.52;;
8476;SDS011;4275;42.854;23.222;2022-07-01T00:28:37;19.00;;;17.80;;
8476;SDS011;4275;42.854;23.222;2022-07-01T00:31:04;19.15;;;17.95;;
8476;SDS011;4275;42.854;23.222;2022-07-01T00:33:31;19.20;;;18.00;;
8476;SDS011;4275;42.854;23.222;2022-07-01T00:35:59;19.20;;;18.00;;
8476;SDS011;4275;42.854;23.222;2022-07-01T00:38:27;18.90;;;17.70;;
8476;SDS011;4275;42.854;23.222;2022-07-01T00:40:54;18.73;;;17.63;;
8476;SDS011;4275;42.854;23.222;2022-07-01T00:43:21;18.85;;;17.75;;
8476;SDS011;4275;42.854;23.222;2022-07-01T00:45:49;18.42;;;17.33;;
8476;SDS011;4275;42.854;23.222;2022-07-01T00:48:17;18.80;;;17.70;;
8476;SDS011;4275;42.854;23.222;2022-07-01T00:50:46;18.30;;;17.20;;
8476;SDS011;4275;42.854;23.222;2022-07-01T00:53:15;18.48;;;17.38;;
8476;SDS011;4275;42.854;23.222;2022-07-01T00:55:42;18.10;;;17.10;;
8476;SDS011;4275;42.854;23.222;2022-07-01T00:58:09;17.98;;;16.98;;
8476;SDS011;4275;42.854;23.222;2022-07-01T01:00:36;18.10;;;17.10;;
8476;SDS011;4275;42.854;23.222;2022-07-01T01:03:05;17.95;;;16.95;;
8476;SDS011;4275;42.854;23.222;2022-07-01T01:05:33;18.00;;;17.00;;
8476;SDS011;4275;42.854;23.222;2022-07-01T01:08:00;17.77;;;16.77;;
8476;SDS011;4275;42.854;23.222;2022-07-01T01:10:29;17.77;;;16.77;;
8476;SDS011;4275;42.854;23.222;2022-07-01T01:12:57;17.80;;;16.80;;
8476;SDS011;4275;42.854;23.222;2022-07-01T01:15:24;17.70;;;16.70;;
8476;SDS011;4275;42.854;23.222;2022-07-01T01:17:52;17.55;;;16.55;;
8476;SDS011;4275;42.854;23.222;2022-07-01T01:20:20;18.10;;;17.10;;
8476;SDS011;4275;42.854;23.222;2022-07-01T01:22:49;18.23;;;17.23;;
8476;SDS011;4275;42.854;23.222;2022-07-01T01:25:17;18.15;;;17.15;;
8476;SDS011;4275;42.854;23.222;2022-07-01T01:27:44;17.80;;;16.80;;
8476;SDS011;4275;42.854;23.222;2022-07-01T01:30:11;18.20;;;17.20;;
8476;SDS011;4275;42.854;23.222;2022-07-01T01:32:39;18.15;;;17.15;;
8476;SDS011;4275;42.854;23.222;2022-07-01T01:35:07;18.45;;;17.35;;
8476;SDS011;4275;42.854;23.222;2022-07-01T01:37:35;18.30;;;17.25;;
8476;SDS011;4275;42.854;23.222;2022-07-01T01:40:07;18.40;;;17.30;;
8476;SDS011;4275;42.854;23.222;2022-07-01T01:42:35;18.48;;;17.38;;
8476;SDS011;4275;42.854;23.222;2022-07-01T01:45:02;18.35;;;17.25;;
8476;SDS011;4275;42.854;23.222;2022-07-01T01:47:30;18.02;;;17.00;;
8476;SDS011;4275;42.854;23.222;2022-07-01T01:49:58;18.35;;;17.25;;
8476;SDS011;4275;42.854;23.222;2022-07-01T01:52:25;17.80;;;16.80;;
8476;SDS011;4275;42.854;23.222;2022-07-01T01:54:52;17.58;;;16.58;;
8476;SDS011;4275;42.854;23.222;2022-07-01T01:57:20;17.70;;;16.70;;
8476;SDS011;4275;42.854;23.222;2022-07-01T01:59:47;17.48;;;16.58;;
8476;SDS011;4275;42.854;23.222;2022-07-01T02:02:15;17.20;;;16.30;;
8476;SDS011;4275;42.854;23.222;2022-07-01T02:04:42;17.10;;;16.20;;
8476;SDS011;4275;42.854;23.222;2022-07-01T02:07:09;17.13;;;16.23;;
8476;SDS011;4275;42.854;23.222;2022-07-01T02:09:36;16.75;;;15.95;;
8476;SDS011;4275;42.854;23.222;2022-07-01T02:12:03;16.90;;;16.10;;
8476;SDS011;4275;42.854;23.222;2022-07-01T02:14:32;16.45;;;15.65;;
8476;SDS011;4275;42.854;23.222;2022-07-01T02:16:59;16.52;;;15.75;;
8476;SDS011;4275;42.854;23.222;2022-07-01T02:19:26;16.30;;;15.60;;
8476;SDS011;4275;42.854;23.222;2022-07-01T02:21:53;16.20;;;15.50;;
8476;SDS011;4275;42.854;23.222;2022-07-01T02:24:20;16.25;;;15.55;;
8476;SDS011;4275;42.854;23.222;2022-07-01T02:26:47;16.05;;;15.35;;
8476;SDS011;4275;42.854;23.222;2022-07-01T02:29:14;16.00;;;15.30;;
8476;SDS011;4275;42.854;23.222;2022-07-01T02:31:42;16.05;;;15.35;;
8476;SDS011;4275;42.854;23.222;2022-07-01T02:34:09;16.25;;;15.55;;
8476;SDS011;4275;42.854;23.222;2022-07-01T02:36:36;15.98;;;15.27;;
8476;SDS011;4275;42.854;23.222;2022-07-01T02:39:03;16.20;;;15.50;;
8476;SDS011;4275;42.854;23.222;2022-07-01T02:41:30;15.95;;;15.25;;
8476;SDS011;4275;42.854;23.222;2022-07-01T02:44:17;16.10;;;15.40;;
8476;SDS011;4275;42.854;23.222;2022-07-01T02:46:46;15.75;;;15.10;;
8476;SDS011;4275;42.854;23.222;2022-07-01T02:49:13;15.85;;;15.15;;
8476;SDS011;4275;42.854;23.222;2022-07-01T02:51:41;15.88;;;15.18;;
8476;SDS011;4275;42.854;23.222;2022-07-01T02:54:08;15.52;;;14.93;;
8476;SDS011;4275;42.854;23.222;2022-07-01T02:56:35;15.80;;;15.10;;
8476;SDS011;4275;42.854;23.222;2022-07-01T02:59:02;15.43;;;14.82;;
8476;SDS011;4275;42.854;23.222;2022-07-01T03:01:29;15.50;;;14.90;;
8476;SDS011;4275;42.854;23.222;2022-07-01T03:03:57;15.50;;;14.90;;
8476;SDS011;4275;42.854;23.222;2022-07-01T03:06:25;15.38;;;14.77;;
8476;SDS011;4275;42.854;23.222;2022-07-01T03:08:52;16.00;;;15.30;;
8476;SDS011;4275;42.854;23.222;2022-07-01T03:11:21;16.10;;;15.40;;
8476;SDS011;4275;42.854;23.222;2022-07-01T03:13:48;16.25;;;15.55;;
8476;SDS011;4275;42.854;23.222;2022-07-01T03:16:15;15.73;;;15.13;;
8476;SDS011;4275;42.854;23.222;2022-07-01T03:18:42;16.10;;;15.40;;
8476;SDS011;4275;42.854;23.222;2022-07-01T03:21:10;16.17;;;15.48;;
8476;SDS011;4275;42.854;23.222;2022-07-01T03:23:37;16.00;;;15.30;;
8476;SDS011;4275;42.854;23.222;2022-07-01T03:26:04;16.10;;;15.40;;
8476;SDS011;4275;42.854;23.222;2022-07-01T03:28:31;16.42;;;15.73;;
8476;SDS011;4275;42.854;23.222;2022-07-01T03:30:59;16.02;;;15.32;;
8476;SDS011;4275;42.854;23.222;2022-07-01T03:33:26;16.15;;;15.45;;
8476;SDS011;4275;42.854;23.222;2022-07-01T03:35:53;15.95;;;15.25;;
8476;SDS011;4275;42.854;23.222;2022-07-01T03:38:22;16.92;;;16.13;;
8476;SDS011;4275;42.854;23.222;2022-07-01T03:40:49;17.05;;;16.25;;
8476;SDS011;4275;42.854;23.222;2022-07-01T03:43:16;17.45;;;16.65;;
8476;SDS011;4275;42.854;23.222;2022-07-01T03:45:43;17.55;;;16.65;;
8476;SDS011;4275;42.854;23.222;2022-07-01T03:48:10;17.77;;;16.88;;
8476;SDS011;4275;42.854;23.222;2022-07-01T03:50:37;17.65;;;16.75;;
8476;SDS011;4275;42.854;23.222;2022-07-01T03:53:04;17.70;;;16.80;;
8476;SDS011;4275;42.854;23.222;2022-07-01T03:55:50;17.77;;;16.85;;
8476;SDS011;4275;42.854;23.222;2022-07-01T03:58:17;17.67;;;16.77;;
8476;SDS011;4275;42.854;23.222;2022-07-01T04:00:44;18.30;;;17.30;;
8476;SDS011;4275;42.854;23.222;2022-07-01T04:03:12;17.65;;;16.75;;
8476;SDS011;4275;42.854;23.222;2022-07-01T04:05:39;17.48;;;16.58;;
8476;SDS011;4275;42.854;23.222;2022-07-01T04:08:07;17.42;;;16.52;;
8476;SDS011;4275;42.854;23.222;2022-07-01T04:10:36;17.42;;;16.52;;
8476;SDS011;4275;42.854;23.222;2022-07-01T04:13:05;17.40;;;16.50;;
8476;SDS011;4275;42.854;23.222;2022-07-01T04:15:32;17.25;;;16.35;;
8476;SDS011;4275;42.854;23.222;2022-07-01T04:18:00;17.58;;;16.67;;
8476;SDS011;4275;42.854;23.222;2022-07-01T04:20:27;17.42;;;16.52;;
8476;SDS011;4275;42.854;23.222;2022-07-01T04:22:54;17.95;;;16.95;;
8476;SDS011;4275;42.854;23.222;2022-07-01T04:25:21;17.92;;;16.92;;
8476;SDS011;4275;42.854;23.222;2022-07-01T04:27:48;17.85;;;16.95;;
8476;SDS011;4275;42.854;23.222;2022-07-01T04:30:16;18.17;;;17.17;;
8476;SDS011;4275;42.854;23.222;2022-07-01T04:32:43;18.40;;;17.30;;
8476;SDS011;4275;42.854;23.222;2022-07-01T04:35:10;18.73;;;17.63;;
8476;SDS011;4275;42.854;23.222;2022-07-01T04:37:39;18.33;;;17.27;;
8476;SDS011;4275;42.854;23.222;2022-07-01T04:40:06;18.67;;;17.58;;
8476;SDS011;4275;42.854;23.222;2022-07-01T04:42:34;18.65;;;17.55;;
8476;SDS011;4275;42.854;23.222;2022-07-01T04:45:00;18.63;;;17.52;;
8476;SDS011;4275;42.854;23.222;2022-07-01T04:47:29;18.85;;;17.65;;
8476;SDS011;4275;42.854;23.222;2022-07-01T04:49:58;19.15;;;17.95;;
8476;SDS011;4275;42.854;23.222;2022-07-01T04:52:27;18.98;;;17.77;;
8476;SDS011;4275;42.854;23.222;2022-07-01T04:54:54;18.95;;;17.75;;
8476;SDS011;4275;42.854;23.222;2022-07-01T04:57:21;18.58;;;17.38;;
8476;SDS011;4275;42.854;23.222;2022-07-01T04:59:48;18.95;;;17.75;;
8476;SDS011;4275;42.854;23.222;2022-07-01T05:02:15;19.23;;;18.02;;
8476;SDS011;4275;42.854;23.222;2022-07-01T05:04:44;18.65;;;17.45;;
8476;SDS011;4275;42.854;23.222;2022-07-01T05:07:11;19.05;;;17.85;;
8476;SDS011;4275;42.854;23.222;2022-07-01T05:09:53;19.25;;;18.05;;
8476;SDS011;4275;42.854;23.222;2022-07-01T05:12:21;19.00;;;17.80;;
8476;SDS011;4275;42.854;23.222;2022-07-01T05:14:48;19.50;;;18.30;;
8476;SDS011;4275;42.854;23.222;2022-07-01T05:17:15;19.48;;;18.27;;
8476;SDS011;4275;42.854;23.222;2022-07-01T05:19:43;19.30;;;18.10;;
8476;SDS011;4275;42.854;23.222;2022-07-01T05:22:28;19.10;;;17.90;;
8476;SDS011;4275;42.854;23.222;2022-07-01T05:24:55;18.60;;;17.50;;
8476;SDS011;4275;42.854;23.222;2022-07-01T05:27:22;19.25;;;18.05;;
8476;SDS011;4275;42.854;23.222;2022-07-01T05:29:50;18.90;;;17.80;;
8476;SDS011;4275;42.854;23.222;2022-07-01T05:32:17;19.50;;;18.30;;
8476;SDS011;4275;42.854;23.222;2022-07-01T05:34:46;19.20;;;18.00;;
8476;SDS011;4275;42.854;23.222;2022-07-01T05:37:13;19.30;;;18.10;;
8476;SDS011;4275;42.854;23.222;2022-07-01T05:39:42;19.65;;;18.45;;
8476;SDS011;4275;42.854;23.222;2022-07-01T05:42:09;19.20;;;18.00;;
8476;SDS011;4275;42.854;23.222;2022-07-01T05:44:36;18.67;;;17.58;;
8476;SDS011;4275;42.854;23.222;2022-07-01T05:47:03;18.80;;;17.70;;
8476;SDS011;4275;42.854;23.222;2022-07-01T05:49:30;18.85;;;17.75;;
8476;SDS011;4275;42.854;23.222;2022-07-01T05:51:59;19.83;;;18.63;;
8476;SDS011;4275;42.854;23.222;2022-07-01T05:54:26;19.10;;;17.90;;
8476;SDS011;4275;42.854;23.222;2022-07-01T05:56:53;18.65;;;17.55;;
8476;SDS011;4275;42.854;23.222;2022-07-01T05:59:20;19.33;;;18.13;;
8476;SDS011;4275;42.854;23.222;2022-07-01T06:01:47;19.33;;;18.13;;
8476;SDS011;4275;42.854;23.222;2022-07-01T06:04:16;19.20;;;18.00;;
8476;SDS011;4275;42.854;23.222;2022-07-01T06:06:43;19.38;;;18.17;;
8476;SDS011;4275;42.854;23.222;2022-07-01T06:09:11;19.15;;;18.02;;
8476;SDS011;4275;42.854;23.222;2022-07-01T06:11:38;19.10;;;18.00;;
8476;SDS011;4275;42.854;23.222;2022-07-01T06:14:05;18.63;;;17.52;;
8476;SDS011;4275;42.854;23.222;2022-07-01T06:16:33;19.33;;;18.13;;
8476;SDS011;4275;42.854;23.222;2022-07-01T06:19:00;19.65;;;18.45;;
8476;SDS011;4275;42.854;23.222;2022-07-01T06:21:27;19.30;;;18.20;;
8476;SDS011;4275;42.854;23.222;2022-07-01T06:23:54;18.75;;;17.65;;
8476;SDS011;4275;42.854;23.222;2022-07-01T06:26:22;20.33;;;19.08;;
8476;SDS011;4275;42.854;23.222;2022-07-01T06:28:49;18.77;;;17.67;;
8476;SDS011;4275;42.854;23.222;2022-07-01T06:31:16;18.95;;;17.80;;
8476;SDS011;4275;42.854;23.222;2022-07-01T06:33:44;18.88;;;17.77;;
8476;SDS011;4275;42.854;23.222;2022-07-01T06:36:11;19.05;;;17.95;;
8476;SDS011;4275;42.854;23.222;2022-07-01T06:38:39;19.27;;;18.13;;
8476;SDS011;4275;42.854;23.222;2022-07-01T06:41:06;19.55;;;18.40;;
8476;SDS011;4275;42.854;23.222;2022-07-01T06:43:52;18.88;;;17.77;;
8476;SDS011;4275;42.854;23.222;2022-07-01T06:46:19;19.48;;;18.27;;
8476;SDS011;4275;42.854;23.222;2022-07-01T06:48:46;19.58;;;18.38;;
8476;SDS011;4275;42.854;23.222;2022-07-01T06:51:13;22.00;;;20.60;;
8476;SDS011;4275;42.854;23.222;2022-07-01T06:53:41;19.65;;;18.45;;
8476;SDS011;4275;42.854;23.222;2022-07-01T06:56:10;19.45;;;18.25;;
8476;SDS011;4275;42.854;23.222;2022-07-01T06:58:37;19.90;;;18.70;;
8476;SDS011;4275;42.854;23.222;2022-07-01T07:01:06;19.10;;;18.00;;
8476;SDS011;4275;42.854;23.222;2022-07-01T07:03:33;19.75;;;18.55;;
8476;SDS011;4275;42.854;23.222;2022-07-01T07:06:01;19.85;;;18.65;;
8476;SDS011;4275;42.854;23.222;2022-07-01T07:08:30;20.38;;;19.17;;
8476;SDS011;4275;42.854;23.222;2022-07-01T07:10:58;21.25;;;19.95;;
8476;SDS011;4275;42.854;23.222;2022-07-01T07:13:26;20.45;;;19.25;;
8476;SDS011;4275;42.854;23.222;2022-07-01T07:15:53;20.60;;;19.30;;
8476;SDS011;4275;42.854;23.222;2022-07-01T07:18:21;19.50;;;18.30;;
8476;SDS011;4275;42.854;23.222;2022-07-01T07:20:48;20.42;;;19.13;;
8476;SDS011;4275;42.854;23.222;2022-07-01T07:23:16;20.35;;;19.05;;
8476;SDS011;4275;42.854;23.222;2022-07-01T07:25:43;19.88;;;18.67;;
8476;SDS011;4275;42.854;23.222;2022-07-01T07:28:10;20.17;;;18.88;;
8476;SDS011;4275;42.854;23.222;2022-07-01T07:30:37;20.27;;;18.98;;
8476;SDS011;4275;42.854;23.222;2022-07-01T07:33:04;20.00;;;18.70;;
8476;SDS011;4275;42.854;23.222;2022-07-01T07:35:32;19.95;;;18.73;;
8476;SDS011;4275;42.854;23.222;2022-07-01T07:37:59;20.05;;;18.75;;
8476;SDS011;4275;42.854;23.222;2022-07-01T07:40:26;20.17;;;18.88;;
8476;SDS011;4275;42.854;23.222;2022-07-01T07:42:53;19.95;;;18.65;;
8476;SDS011;4275;42.854;23.222;2022-07-01T07:45:20;20.20;;;18.90;;
8476;SDS011;4275;42.854;23.222;2022-07-01T07:47:48;19.67;;;18.38;;
8476;SDS011;4275;42.854;23.222;2022-07-01T07:50:16;19.92;;;18.63;;
8476;SDS011;4275;42.854;23.222;2022-07-01T07:52:44;20.48;;;19.17;;
8476;SDS011;4275;42.854;23.222;2022-07-01T07:55:11;19.92;;;18.63;;
8476;SDS011;4275;42.854;23.222;2022-07-01T07:57:39;19.85;;;18.55;;
8476;SDS011;4275;42.854;23.222;2022-07-01T08:00:08;19.70;;;18.50;;
8476;SDS011;4275;42.854;23.222;2022-07-01T08:02:38;19.90;;;18.60;;
8476;SDS011;4275;42.854;23.222;2022-07-01T08:05:06;19.83;;;18.52;;
8476;SDS011;4275;42.854;23.222;2022-07-01T08:07:34;20.08;;;18.77;;
8476;SDS011;4275;42.854;23.222;2022-07-01T08:10:04;20.08;;;18.77;;
8476;SDS011;4275;42.854;23.222;2022-07-01T08:12:32;20.05;;;18.75;;
8476;SDS011;4275;42.854;23.222;2022-07-01T08:15:00;19.80;;;18.50;;
8476;SDS011;4275;42.854;23.222;2022-07-01T08:17:28;19.92;;;18.63;;
8476;SDS011;4275;42.854;23.222;2022-07-01T08:19:55;19.98;;;18.67;;
8476;SDS011;4275;42.854;23.222;2022-07-01T08:22:22;19.83;;;18.52;;
8476;SDS011;4275;42.854;23.222;2022-07-01T08:24:49;19.90;;;18.60;;
8476;SDS011;4275;42.854;23.222;2022-07-01T08:27:17;19.98;;;18.67;;
8476;SDS011;4275;42.854;23.222;2022-07-01T08:29:44;20.17;;;18.88;;
8476;SDS011;4275;42.854;23.222;2022-07-01T08:32:11;20.20;;;18.90;;
8476;SDS011;4275;42.854;23.222;2022-07-01T08:34:38;19.92;;;18.63;;
8476;SDS011;4275;42.854;23.222;2022-07-01T08:37:06;19.90;;;18.60;;
8476;SDS011;4275;42.854;23.222;2022-07-01T08:39:33;19.90;;;18.55;;
8476;SDS011;4275;42.854;23.222;2022-07-01T08:42:00;19.98;;;18.67;;
8476;SDS011;4275;42.854;23.222;2022-07-01T08:44:28;20.60;;;19.20;;
8476;SDS011;4275;42.854;23.222;2022-07-01T08:46:57;21.15;;;19.80;;
8476;SDS011;4275;42.854;23.222;2022-07-01T08:49:24;19.65;;;18.35;;
8476;SDS011;4275;42.854;23.222;2022-07-01T08:51:52;21.20;;;19.70;;
8476;SDS011;4275;42.854;23.222;2022-07-01T08:54:19;19.58;;;18.27;;
8476;SDS011;4275;42.854;23.222;2022-07-01T08:56:46;21.25;;;19.85;;
8476;SDS011;4275;42.854;23.222;2022-07-01T08:59:14;21.70;;;20.30;;
8476;SDS011;4275;42.854;23.222;2022-07-01T09:01:55;21.20;;;19.80;;
8476;SDS011;4275;42.854;23.222;2022-07-01T09:04:23;21.40;;;19.90;;
8476;SDS011;4275;42.854;23.222;2022-07-01T09:06:51;21.10;;;19.60;;
8476;SDS011;4275;42.854;23.222;2022-07-01T09:09:23;20.95;;;19.50;;
8476;SDS011;4275;42.854;23.222;2022-07-01T09:11:51;21.52;;;20.02;;
8476;SDS011;4275;42.854;23.222;2022-07-01T09:14:20;21.73;;;20.23;;
8476;SDS011;4275;42.854;23.222;2022-07-01T09:16:49;20.90;;;19.50;;
8476;SDS011;4275;42.854;23.222;2022-07-01T09:19:19;21.42;;;20.00;;
8476;SDS011;4275;42.854;23.222;2022-07-01T09:21:47;21.20;;;19.70;;
8476;SDS011;4275;42.854;23.222;2022-07-01T09:24:23;21.55;;;20.05;;
8476;SDS011;4275;42.854;23.222;2022-07-01T09:26:53;20.58;;;19.17;;
8476;SDS011;4275;42.854;23.222;2022-07-01T09:29:25;20.58;;;19.17;;
8476;SDS011;4275;42.854;23.222;2022-07-01T09:31:53;20.73;;;19.33;;
8476;SDS011;4275;42.854;23.222;2022-07-01T09:34:21;21.13;;;19.67;;
8476;SDS011;4275;42.854;23.222;2022-07-01T09:36:51;21.40;;;19.90;;
8476;SDS011;4275;42.854;23.222;2022-07-01T09:39:20;21.48;;;19.98;;
8476;SDS011;4275;42.854;23.222;2022-07-01T09:41:47;21.95;;;20.45;;
8476;SDS011;4275;42.854;23.222;2022-07-01T09:44:14;21.65;;;20.13;;
8476;SDS011;4275;42.854;23.222;2022-07-01T09:49:27;23.45;;;21.75;;
8476;SDS011;4275;42.854;23.222;2022-07-01T09:51:54;23.17;;;21.58;;
8476;SDS011;4275;42.854;23.222;2022-07-01T09:54:21;24.58;;;22.88;;
8476;SDS011;4275;42.854;23.222;2022-07-01T09:56:48;23.40;;;21.80;;
8476;SDS011;4275;42.854;23.222;2022-07-01T09:59:15;22.25;;;20.67;;
8476;SDS011;4275;42.854;23.222;2022-07-01T10:01:43;21.75;;;20.15;;
8476;SDS011;4275;42.854;23.222;2022-07-01T10:04:10;22.10;;;20.50;;
8476;SDS011;4275;42.854;23.222;2022-07-01T10:06:51;22.60;;;21.00;;
8476;SDS011;4275;42.854;23.222;2022-07-01T10:12:36;22.33;;;20.73;;
8476;SDS011;4275;42.854;23.222;2022-07-01T10:15:07;22.55;;;20.85;;
8476;SDS011;4275;42.854;23.222;2022-07-01T10:17:40;21.40;;;19.80;;
8476;SDS011;4275;42.854;23.222;2022-07-01T10:20:09;21.65;;;20.05;;
8476;SDS011;4275;42.854;23.222;2022-07-01T10:22:40;21.65;;;20.05;;
8476;SDS011;4275;42.854;23.222;2022-07-01T10:28:17;21.85;;;20.15;;
8476;SDS011;4275;42.854;23.222;2022-07-01T10:30:48;21.80;;;20.20;;
8476;SDS011;4275;42.854;23.222;2022-07-01T10:36:06;23.20;;;21.50;;
8476;SDS011;4275;42.854;23.222;2022-07-01T10:39:06;22.75;;;21.05;;
8476;SDS011;4275;42.854;23.222;2022-07-01T10:41:39;22.67;;;20.98;;
8476;SDS011;4275;42.854;23.222;2022-07-01T10:44:09;22.10;;;20.40;;
8476;SDS011;4275;42.854;23.222;2022-07-01T10:46:38;22.05;;;20.45;;
8476;SDS011;4275;42.854;23.222;2022-07-01T10:49:09;21.88;;;20.27;;
8476;SDS011;4275;42.854;23.222;2022-07-01T10:51:42;21.70;;;20.10;;
8476;SDS011;4275;42.854;23.222;2022-07-01T10:54:13;21.90;;;20.30;;
8476;SDS011;4275;42.854;23.222;2022-07-01T10:59:53;22.00;;;20.40;;
8476;SDS011;4275;42.854;23.222;2022-07-01T11:02:22;21.63;;;20.02;;
8476;SDS011;4275;42.854;23.222;2022-07-01T11:04:51;21.58;;;19.98;;
8476;SDS011;4275;42.854;23.222;2022-07-01T11:07:19;22.23;;;20.58;;
8476;SDS011;4275;42.854;23.222;2022-07-01T11:09:48;21.98;;;20.27;;
8476;SDS011;4275;42.854;23.222;2022-07-01T11:12:15;22.00;;;20.30;;
8476;SDS011;4275;42.854;23.222;2022-07-01T11:14:43;21.88;;;20.27;;
8476;SDS011;4275;42.854;23.222;2022-07-01T11:17:10;56.25;;;46.05;;
8476;SDS011;4275;42.854;23.222;2022-07-01T11:19:37;21.65;;;20.05;;
8476;SDS011;4275;42.854;23.222;2022-07-01T11:22:04;22.42;;;20.73;;
8476;SDS011;4275;42.854;23.222;2022-07-01T11:24:32;21.88;;;20.17;;
8476;SDS011;4275;42.854;23.222;2022-07-01T11:27:05;21.73;;;20.13;;
8476;SDS011;4275;42.854;23.222;2022-07-01T11:29:33;22.02;;;20.40;;
8476;SDS011;4275;42.854;23.222;2022-07-01T11:32:00;22.23;;;20.63;;
8476;SDS011;4275;42.854;23.222;2022-07-01T11:34:28;22.55;;;20.85;;
8476;SDS011;4275;42.854;23.222;2022-07-01T11:36:56;22.90;;;21.20;;
8476;SDS011;4275;42.854;23.222;2022-07-01T11:39:41;22.50;;;20.80;;
8476;SDS011;4275;42.854;23.222;2022-07-01T11:42:10;22.65;;;20.95;;
8476;SDS011;4275;42.854;23.222;2022-07-01T11:44:38;22.67;;;20.98;;
8476;SDS011;4275;42.854;23.222;2022-07-01T11:47:06;22.38;;;20.77;;
8476;SDS011;4275;42.854;23.222;2022-07-01T11:49:42;22.20;;;20.50;;
8476;SDS011;4275;42.854;23.222;2022-07-01T11:52:10;22.25;;;20.55;;
8476;SDS011;4275;42.854;23.222;2022-07-01T11:54:38;22.23;;;20.52;;
8476;SDS011;4275;42.854;23.222;2022-07-01T11:57:12;22.52;;;20.83;;
8476;SDS011;4275;42.854;23.222;2022-07-01T11:59:41;22.23;;;20.52;;
8476;SDS011;4275;42.854;23.222;2022-07-01T12:02:10;21.77;;;20.08;;
8476;SDS011;4275;42.854;23.222;2022-07-01T12:04:39;22.13;;;20.42;;
8476;SDS011;4275;42.854;23.222;2022-07-01T12:07:07;22.30;;;20.60;;
8476;SDS011;4275;42.854;23.222;2022-07-01T12:09:35;22.25;;;20.55;;
8476;SDS011;4275;42.854;23.222;2022-07-01T12:12:02;22.35;;;20.65;;
8476;SDS011;4275;42.854;23.222;2022-07-01T12:14:32;22.42;;;20.73;;
8476;SDS011;4275;42.854;23.222;2022-07-01T12:17:02;22.40;;;20.70;;
8476;SDS011;4275;42.854;23.222;2022-07-01T12:19:37;22.25;;;20.65;;
8476;SDS011;4275;42.854;23.222;2022-07-01T12:22:07;22.02;;;20.33;;
8476;SDS011;4275;42.854;23.222;2022-07-01T12:24:35;22.35;;;20.65;;
8476;SDS011;4275;42.854;23.222;2022-07-01T12:27:03;22.88;;;21.17;;
8476;SDS011;4275;42.854;23.222;2022-07-01T12:32:20;23.38;;;21.67;;
8476;SDS011;4275;42.854;23.222;2022-07-01T12:34:49;23.98;;;22.27;;
8476;SDS011;4275;42.854;23.222;2022-07-01T12:37:19;23.58;;;21.88;;
8476;SDS011;4275;42.854;23.222;2022-07-01T12:39:48;23.02;;;21.33;;
8476;SDS011;4275;42.854;23.222;2022-07-01T12:42:23;25.45;;;23.63;;
8476;SDS011;4275;42.854;23.222;2022-07-01T12:44:53;29.85;;;27.65;;
8476;SDS011;4275;42.854;23.222;2022-07-01T12:47:24;27.52;;;25.35;;
8476;SDS011;4275;42.854;23.222;2022-07-01T12:50:09;33.20;;;31.00;;
8476;SDS011;4275;42.854;23.222;2022-07-01T12:52:38;31.10;;;29.00;;
8476;SDS011;4275;42.854;23.222;2022-07-01T12:55:16;33.65;;;31.45;;
8476;SDS011;4275;42.854;23.222;2022-07-01T12:57:46;36.25;;;33.85;;
8476;SDS011;4275;42.854;23.222;2022-07-01T13:00:15;35.03;;;32.72;;
8476;SDS011;4275;42.854;23.222;2022-07-01T13:02:44;34.88;;;32.58;;
8476;SDS011;4275;42.854;23.222;2022-07-01T13:05:11;33.70;;;31.40;;
8476;SDS011;4275;42.854;23.222;2022-07-01T13:07:39;33.33;;;31.13;;
8476;SDS011;4275;42.854;23.222;2022-07-01T13:10:06;33.85;;;31.55;;
8476;SDS011;4275;42.854;23.222;2022-07-01T13:12:33;34.05;;;31.75;;
8476;SDS011;4275;42.854;23.222;2022-07-01T13:15:00;31.75;;;29.55;;
8476;SDS011;4275;42.854;23.222;2022-07-01T13:17:29;34.42;;;32.13;;
8476;SDS011;4275;42.854;23.222;2022-07-01T13:19:56;35.95;;;33.55;;
8476;SDS011;4275;42.854;23.222;2022-07-01T13:22:23;34.55;;;32.25;;
8476;SDS011;4275;42.854;23.222;2022-07-01T13:24:50;30.65;;;28.55;;
8476;SDS011;4275;42.854;23.222;2022-07-01T13:27:17;34.05;;;31.75;;
8476;SDS011;4275;42.854;23.222;2022-07-01T13:29:44;33.55;;;31.30;;
8476;SDS011;4275;42.854;23.222;2022-07-01T13:32:11;34.33;;;32.00;;
8476;SDS011;4275;42.854;23.222;2022-07-01T13:34:40;33.17;;;30.98;;
8476;SDS011;4275;42.854;23.222;2022-07-01T13:37:07;33.72;;;31.42;;
8476;SDS011;4275;42.854;23.222;2022-07-01T13:39:34;32.58;;;30.38;;
8476;SDS011;4275;42.854;23.222;2022-07-01T13:42:01;32.25;;;30.10;;
8476;SDS011;4275;42.854;23.222;2022-07-01T13:44:28;32.63;;;30.42;;
8476;SDS011;4275;42.854;23.222;2022-07-01T13:46:55;33.40;;;31.20;;
8476;SDS011;4275;42.854;23.222;2022-07-01T13:49:23;32.67;;;30.48;;
8476;SDS011;4275;42.854;23.222;2022-07-01T13:51:51;32.97;;;30.77;;
8476;SDS011;4275;42.854;23.222;2022-07-01T13:54:18;31.23;;;29.13;;
8476;SDS011;4275;42.854;23.222;2022-07-01T13:56:45;31.33;;;29.23;;
8476;SDS011;4275;42.854;23.222;2022-07-01T13:59:12;33.28;;;31.05;;
8476;SDS011;4275;42.854;23.222;2022-07-01T14:01:39;35.63;;;33.25;;
8476;SDS011;4275;42.854;23.222;2022-07-01T14:04:06;35.03;;;32.72;;
8476;SDS011;4275;42.854;23.222;2022-07-01T14:06:34;33.45;;;31.25;;
8476;SDS011;4275;42.854;23.222;2022-07-01T14:09:03;32.95;;;30.75;;
8476;SDS011;4275;42.854;23.222;2022-07-01T14:11:30;33.47;;;31.27;;
8476;SDS011;4275;42.854;23.222;2022-07-01T14:13:57;32.70;;;30.50;;
8476;SDS011;4275;42.854;23.222;2022-07-01T14:16:24;31.50;;;29.40;;
8476;SDS011;4275;42.854;23.222;2022-07-01T14:18:55;32.40;;;30.20;;
8476;SDS011;4275;42.854;23.222;2022-07-01T14:21:22;32.60;;;30.40;;
8476;SDS011;4275;42.854;23.222;2022-07-01T14:23:49;32.58;;;30.38;;
8476;SDS011;4275;42.854;23.222;2022-07-01T14:26:18;29.77;;;27.77;;
8476;SDS011;4275;42.854;23.222;2022-07-01T14:28:45;33.38;;;31.17;;
8476;SDS011;4275;42.854;23.222;2022-07-01T14:31:12;31.95;;;29.80;;
8476;SDS011;4275;42.854;23.222;2022-07-01T14:33:39;22.23;;;20.52;;
8476;SDS011;4275;42.854;23.222;2022-07-01T14:36:07;21.90;;;20.20;;
8476;SDS011;4275;42.854;23.222;2022-07-01T14:38:34;21.65;;;19.95;;
8476;SDS011;4275;42.854;23.222;2022-07-01T14:41:01;22.05;;;20.35;;
8476;SDS011;4275;42.854;23.222;2022-07-01T14:43:29;22.08;;;20.38;;
8476;SDS011;4275;42.854;23.222;2022-07-01T14:45:57;22.67;;;20.92;;
8476;SDS011;4275;42.854;23.222;2022-07-01T14:48:26;23.38;;;21.58;;
8476;SDS011;4275;42.854;23.222;2022-07-01T14:50:53;22.83;;;21.13;;
8476;SDS011;4275;42.854;23.222;2022-07-01T14:53:20;23.02;;;21.33;;
8476;SDS011;4275;42.854;23.222;2022-07-01T14:55:47;22.88;;;21.10;;
8476;SDS011;4275;42.854;23.222;2022-07-01T14:58:14;23.60;;;21.80;;